sensor_id;sensor_type;location;lat;lon;timestamp;pressure;altitude;pressure_sealevel;temperature;humidity
7834;BME280;3962;42.696;23.354;2023-02-21T00:02:24;95588.91;;;5.57;69.21
7834;BME280;3962;42.696;23.354;2023-02-21T00:05:09;95579.84;;;5.48;69.25
7834;BME280;3962;42.696;23.354;2023-02-21T00:07:54;95584.09;;;5.38;69.62
7834;BME280;3962;42.696;23.354;2023-02-21T00:10:40;95582.84;;;5.31;70.55
7834;BME280;3962;42.696;23.354;2023-02-21T00:13:26;95583.69;;;5.32;70.45
7834;BME280;3962;42.696;23.354;2023-02-21T00:16:26;95582.31;;;5.26;69.84
7834;BME280;3962;42.696;23.354;2023-02-21T00:19:25;95586.75;;;5.26;70.44
7834;BME280;3962;42.696;23.354;2023-02-21T00:22:30;95580.53;;;5.27;70.43
7834;BME280;3962;42.696;23.354;2023-02-21T00:25:15;95578.00;;;5.13;70.21
7834;BME280;3962;42.696;23.354;2023-02-21T00:28:00;95574.09;;;5.18;70.46
7834;BME280;3962;42.696;23.354;2023-02-21T00:30:58;95574.75;;;5.09;70.22
7834;BME280;3962;42.696;23.354;2023-02-21T00:33:53;95566.41;;;5.15;71.41
7834;BME280;3962;42.696;23.354;2023-02-21T00:36:42;95579.78;;;5.37;70.28
7834;BME280;3962;42.696;23.354;2023-02-21T00:39:33;95574.19;;;5.29;70.62
7834;BME280;3962;42.696;23.354;2023-02-21T00:42:18;95566.63;;;5.12;70.71
7834;BME280;3962;42.696;23.354;2023-02-21T00:45:21;95569.28;;;5.00;70.99
7834;BME280;3962;42.696;23.354;2023-02-21T00:48:05;95560.22;;;4.91;71.56
7834;BME280;3962;42.696;23.354;2023-02-21T00:50:53;95557.91;;;4.87;71.62
7834;BME280;3962;42.696;23.354;2023-02-21T00:53:44;95552.22;;;4.80;71.87
7834;BME280;3962;42.696;23.354;2023-02-21T00:56:37;95545.47;;;4.76;71.57
7834;BME280;3962;42.696;23.354;2023-02-21T00:59:22;95541.66;;;4.68;72.38
7834;BME280;3962;42.696;23.354;2023-02-21T01:02:07;95521.44;;;4.68;72.27
7834;BME280;3962;42.696;23.354;2023-02-21T01:05:05;95524.69;;;4.72;72.13
7834;BME280;3962;42.696;23.354;2023-02-21T01:08:03;95515.22;;;4.69;72.70
7834;BME280;3962;42.696;23.354;2023-02-21T01:10:59;95513.94;;;4.75;73.23
7834;BME280;3962;42.696;23.354;2023-02-21T01:13:45;95514.88;;;4.74;72.66
7834;BME280;3962;42.696;23.354;2023-02-21T01:16:31;95508.34;;;4.79;73.17
7834;BME280;3962;42.696;23.354;2023-02-21T01:19:25;95510.03;;;4.93;72.29
7834;BME280;3962;42.696;23.354;2023-02-21T01:22:23;95506.94;;;4.99;71.58
7834;BME280;3962;42.696;23.354;2023-02-21T01:25:29;95496.63;;;4.96;71.94
7834;BME280;3962;42.696;23.354;2023-02-21T01:28:18;95489.56;;;4.96;71.76
7834;BME280;3962;42.696;23.354;2023-02-21T01:31:04;95493.34;;;4.92;72.06
7834;BME280;3962;42.696;23.354;2023-02-21T01:33:51;95492.19;;;4.96;72.04
7834;BME280;3962;42.696;23.354;2023-02-21T01:36:40;95487.69;;;4.86;71.98
7834;BME280;3962;42.696;23.354;2023-02-21T01:39:31;95491.16;;;4.74;72.10
7834;BME280;3962;42.696;23.354;2023-02-21T01:42:20;95482.31;;;4.75;71.97
7834;BME280;3962;42.696;23.354;2023-02-21T01:45:44;95494.88;;;4.84;72.37
7834;BME280;3962;42.696;23.354;2023-02-21T01:48:30;95493.25;;;4.94;73.13
7834;BME280;3962;42.696;23.354;2023-02-21T01:51:17;95484.59;;;5.04;72.82
7834;BME280;3962;42.696;23.354;2023-02-21T01:54:09;95487.94;;;5.06;71.99
7834;BME280;3962;42.696;23.354;2023-02-21T01:56:57;95474.75;;;5.06;72.24
7834;BME280;3962;42.696;23.354;2023-02-21T01:59:43;95470.03;;;4.99;71.83
7834;BME280;3962;42.696;23.354;2023-02-21T02:02:33;95465.53;;;4.88;71.87
7834;BME280;3962;42.696;23.354;2023-02-21T02:05:23;95469.09;;;4.87;71.78
7834;BME280;3962;42.696;23.354;2023-02-21T02:08:19;95465.75;;;4.85;72.50
7834;BME280;3962;42.696;23.354;2023-02-21T02:11:15;95466.16;;;4.79;72.33
7834;BME280;3962;42.696;23.354;2023-02-21T02:14:34;95458.50;;;4.76;72.36
7834;BME280;3962;42.696;23.354;2023-02-21T02:17:12;95453.44;;;4.73;72.60
7834;BME280;3962;42.696;23.354;2023-02-21T02:26:04;95453.72;;;5.17;72.33
7834;BME280;3962;42.696;23.354;2023-02-21T02:28:58;95455.31;;;5.20;71.64
7834;BME280;3962;42.696;23.354;2023-02-21T02:35:02;95444.09;;;5.29;71.63
7834;BME280;3962;42.696;23.354;2023-02-21T02:37:36;95449.03;;;5.33;71.33
7834;BME280;3962;42.696;23.354;2023-02-21T02:40:17;95450.59;;;5.36;71.76
7834;BME280;3962;42.696;23.354;2023-02-21T02:42:58;95448.69;;;5.38;70.77
7834;BME280;3962;42.696;23.354;2023-02-21T02:45:55;95444.41;;;5.24;70.80
7834;BME280;3962;42.696;23.354;2023-02-21T02:48:27;95443.41;;;5.14;70.57
7834;BME280;3962;42.696;23.354;2023-02-21T02:51:03;95437.63;;;5.09;71.32
7834;BME280;3962;42.696;23.354;2023-02-21T02:53:34;95432.97;;;5.13;71.62
7834;BME280;3962;42.696;23.354;2023-02-21T02:56:03;95432.69;;;5.05;71.17
7834;BME280;3962;42.696;23.354;2023-02-21T02:58:47;95433.25;;;4.97;73.12
7834;BME280;3962;42.696;23.354;2023-02-21T03:04:32;95434.88;;;5.11;72.28
7834;BME280;3962;42.696;23.354;2023-02-21T03:07:10;95439.28;;;5.10;72.37
7834;BME280;3962;42.696;23.354;2023-02-21T03:09:59;95434.34;;;5.06;71.49
7834;BME280;3962;42.696;23.354;2023-02-21T03:12:39;95438.19;;;5.02;72.36
7834;BME280;3962;42.696;23.354;2023-02-21T03:15:18;95438.97;;;5.15;71.63
7834;BME280;3962;42.696;23.354;2023-02-21T03:17:53;95439.88;;;5.26;72.48
7834;BME280;3962;42.696;23.354;2023-02-21T03:20:25;95439.75;;;5.28;71.54
7834;BME280;3962;42.696;23.354;2023-02-21T03:22:58;95434.16;;;5.32;71.97
7834;BME280;3962;42.696;23.354;2023-02-21T03:25:30;95432.50;;;5.42;71.06
7834;BME280;3962;42.696;23.354;2023-02-21T03:31:04;95420.50;;;5.38;71.45
7834;BME280;3962;42.696;23.354;2023-02-21T03:33:37;95418.66;;;5.51;70.51
7834;BME280;3962;42.696;23.354;2023-02-21T03:36:07;95418.41;;;5.54;70.19
7834;BME280;3962;42.696;23.354;2023-02-21T03:38:39;95420.00;;;5.57;70.41
7834;BME280;3962;42.696;23.354;2023-02-21T03:41:11;95398.16;;;5.55;69.58
7834;BME280;3962;42.696;23.354;2023-02-21T03:43:42;95422.06;;;5.64;69.36
7834;BME280;3962;42.696;23.354;2023-02-21T03:46:25;95430.38;;;5.71;68.95
7834;BME280;3962;42.696;23.354;2023-02-21T03:48:52;95429.09;;;5.53;69.26
7834;BME280;3962;42.696;23.354;2023-02-21T03:51:18;95434.84;;;5.47;69.42
7834;BME280;3962;42.696;23.354;2023-02-21T03:54:05;95436.59;;;5.35;69.75
7834;BME280;3962;42.696;23.354;2023-02-21T03:56:32;95443.97;;;5.30;69.91
7834;BME280;3962;42.696;23.354;2023-02-21T03:59:19;95444.47;;;5.12;70.89
7834;BME280;3962;42.696;23.354;2023-02-21T04:01:46;95425.06;;;5.13;71.07
7834;BME280;3962;42.696;23.354;2023-02-21T04:04:15;95451.50;;;5.24;70.74
7834;BME280;3962;42.696;23.354;2023-02-21T04:06:42;95438.66;;;5.19;70.61
7834;BME280;3962;42.696;23.354;2023-02-21T04:09:15;95445.72;;;5.19;70.79
7834;BME280;3962;42.696;23.354;2023-02-21T04:11:51;95443.75;;;5.10;70.82
7834;BME280;3962;42.696;23.354;2023-02-21T04:14:18;95450.38;;;5.15;71.05
7834;BME280;3962;42.696;23.354;2023-02-21T04:16:46;95449.31;;;5.18;71.17
7834;BME280;3962;42.696;23.354;2023-02-21T04:19:47;95449.84;;;5.10;70.65
7834;BME280;3962;42.696;23.354;2023-02-21T04:22:15;95460.00;;;5.04;70.96
7834;BME280;3962;42.696;23.354;2023-02-21T04:24:49;95450.94;;;5.08;71.23
7834;BME280;3962;42.696;23.354;2023-02-21T04:27:46;95464.41;;;5.16;71.64
7834;BME280;3962;42.696;23.354;2023-02-21T04:30:18;95466.88;;;5.30;71.00
7834;BME280;3962;42.696;23.354;2023-02-21T04:32:48;95467.63;;;5.32;70.52
7834;BME280;3962;42.696;23.354;2023-02-21T04:35:18;95478.66;;;5.37;70.74
7834;BME280;3962;42.696;23.354;2023-02-21T04:38:07;95477.59;;;5.39;70.18
7834;BME280;3962;42.696;23.354;2023-02-21T04:40:52;95472.59;;;5.47;69.77
7834;BME280;3962;42.696;23.354;2023-02-21T04:43:22;95471.47;;;5.39;69.71
7834;BME280;3962;42.696;23.354;2023-02-21T04:46:09;95464.66;;;5.36;69.73
7834;BME280;3962;42.696;23.354;2023-02-21T04:48:36;95471.25;;;5.42;69.52
7834;BME280;3962;42.696;23.354;2023-02-21T04:51:15;95465.13;;;5.41;69.46
7834;BME280;3962;42.696;23.354;2023-02-21T04:53:47;95467.94;;;5.51;69.91
7834;BME280;3962;42.696;23.354;2023-02-21T04:56:17;95444.44;;;5.48;69.52
7834;BME280;3962;42.696;23.354;2023-02-21T04:58:46;95451.06;;;5.53;69.34
7834;BME280;3962;42.696;23.354;2023-02-21T05:01:21;95443.84;;;5.55;69.29
7834;BME280;3962;42.696;23.354;2023-02-21T05:03:48;95454.25;;;5.46;69.29
7834;BME280;3962;42.696;23.354;2023-02-21T05:06:19;95438.81;;;5.29;69.52
7834;BME280;3962;42.696;23.354;2023-02-21T05:08:46;95441.34;;;5.30;69.88
7834;BME280;3962;42.696;23.354;2023-02-21T05:11:12;95445.03;;;5.28;70.85
7834;BME280;3962;42.696;23.354;2023-02-21T05:13:41;95432.84;;;5.14;70.72
7834;BME280;3962;42.696;23.354;2023-02-21T05:16:08;95439.59;;;5.18;70.65
7834;BME280;3962;42.696;23.354;2023-02-21T05:18:34;95438.31;;;5.24;70.31
7834;BME280;3962;42.696;23.354;2023-02-21T05:21:02;95433.09;;;5.11;70.88
7834;BME280;3962;42.696;23.354;2023-02-21T05:23:29;95427.81;;;5.11;71.13
7834;BME280;3962;42.696;23.354;2023-02-21T05:26:06;95429.69;;;5.09;71.17
7834;BME280;3962;42.696;23.354;2023-02-21T05:28:34;95436.78;;;5.09;70.71
7834;BME280;3962;42.696;23.354;2023-02-21T05:31:03;95437.91;;;5.17;71.48
7834;BME280;3962;42.696;23.354;2023-02-21T05:33:31;95440.53;;;5.17;71.00
7834;BME280;3962;42.696;23.354;2023-02-21T05:35:58;95428.41;;;5.15;71.27
7834;BME280;3962;42.696;23.354;2023-02-21T05:38:26;95443.06;;;5.19;71.26
7834;BME280;3962;42.696;23.354;2023-02-21T05:40:53;95435.50;;;5.14;71.29
7834;BME280;3962;42.696;23.354;2023-02-21T05:43:20;95441.41;;;5.18;71.57
7834;BME280;3962;42.696;23.354;2023-02-21T05:45:47;95444.09;;;5.29;71.10
7834;BME280;3962;42.696;23.354;2023-02-21T05:48:15;95451.31;;;5.38;70.94
7834;BME280;3962;42.696;23.354;2023-02-21T05:50:42;95450.66;;;5.47;70.72
7834;BME280;3962;42.696;23.354;2023-02-21T05:53:09;95448.41;;;5.53;70.64
7834;BME280;3962;42.696;23.354;2023-02-21T05:55:36;95456.59;;;5.61;70.49
7834;BME280;3962;42.696;23.354;2023-02-21T05:58:04;95444.72;;;5.56;70.17
7834;BME280;3962;42.696;23.354;2023-02-21T06:00:31;95461.13;;;6.17;71.35
7834;BME280;3962;42.696;23.354;2023-02-21T06:02:57;95460.16;;;6.07;69.59
7834;BME280;3962;42.696;23.354;2023-02-21T06:05:26;95468.03;;;5.96;68.59
7834;BME280;3962;42.696;23.354;2023-02-21T06:07:53;95462.28;;;5.91;68.56
7834;BME280;3962;42.696;23.354;2023-02-21T06:10:20;95459.41;;;5.94;69.03
7834;BME280;3962;42.696;23.354;2023-02-21T06:12:47;95465.19;;;5.99;68.94
7834;BME280;3962;42.696;23.354;2023-02-21T06:15:13;95470.22;;;6.02;69.20
7834;BME280;3962;42.696;23.354;2023-02-21T06:17:42;95471.91;;;6.03;67.96
7834;BME280;3962;42.696;23.354;2023-02-21T06:20:12;95466.31;;;6.19;67.99
7834;BME280;3962;42.696;23.354;2023-02-21T06:22:42;95461.75;;;6.32;67.13
7834;BME280;3962;42.696;23.354;2023-02-21T06:25:09;95461.03;;;6.41;66.71
7834;BME280;3962;42.696;23.354;2023-02-21T06:27:37;95459.16;;;6.43;65.92
7834;BME280;3962;42.696;23.354;2023-02-21T06:30:05;95467.56;;;6.59;66.14
7834;BME280;3962;42.696;23.354;2023-02-21T06:32:32;95458.81;;;6.69;65.92
7834;BME280;3962;42.696;23.354;2023-02-21T06:34:59;95454.72;;;6.87;65.41
7834;BME280;3962;42.696;23.354;2023-02-21T06:37:28;95468.06;;;6.97;65.24
7834;BME280;3962;42.696;23.354;2023-02-21T06:39:56;95463.22;;;7.02;64.24
7834;BME280;3962;42.696;23.354;2023-02-21T06:42:23;95480.41;;;7.07;63.48
7834;BME280;3962;42.696;23.354;2023-02-21T06:44:50;95477.75;;;7.29;64.45
7834;BME280;3962;42.696;23.354;2023-02-21T06:47:17;95474.94;;;7.52;63.63
7834;BME280;3962;42.696;23.354;2023-02-21T06:49:44;95475.97;;;7.72;62.71
7834;BME280;3962;42.696;23.354;2023-02-21T06:52:11;95476.56;;;7.75;61.94
7834;BME280;3962;42.696;23.354;2023-02-21T06:54:38;95475.22;;;7.81;61.48
7834;BME280;3962;42.696;23.354;2023-02-21T06:57:06;95474.94;;;7.84;60.77
7834;BME280;3962;42.696;23.354;2023-02-21T06:59:34;95462.41;;;7.86;61.12
7834;BME280;3962;42.696;23.354;2023-02-21T07:02:01;95480.66;;;8.00;61.02
7834;BME280;3962;42.696;23.354;2023-02-21T07:04:29;95474.59;;;8.09;60.23
7834;BME280;3962;42.696;23.354;2023-02-21T07:06:56;95479.13;;;8.18;60.52
7834;BME280;3962;42.696;23.354;2023-02-21T07:09:22;95475.69;;;8.38;59.49
7834;BME280;3962;42.696;23.354;2023-02-21T07:11:49;95476.56;;;8.48;58.53
7834;BME280;3962;42.696;23.354;2023-02-21T07:14:18;95478.03;;;8.61;58.39
7834;BME280;3962;42.696;23.354;2023-02-21T07:16:44;95474.88;;;8.67;58.80
7834;BME280;3962;42.696;23.354;2023-02-21T07:19:12;95476.50;;;8.79;58.05
7834;BME280;3962;42.696;23.354;2023-02-21T07:21:41;95484.41;;;9.00;57.85
7834;BME280;3962;42.696;23.354;2023-02-21T07:24:07;95481.81;;;9.09;57.31
7834;BME280;3962;42.696;23.354;2023-02-21T07:26:35;95468.94;;;9.05;57.55
7834;BME280;3962;42.696;23.354;2023-02-21T07:29:04;95459.28;;;9.04;57.03
7834;BME280;3962;42.696;23.354;2023-02-21T07:31:44;95461.94;;;9.04;57.36
7834;BME280;3962;42.696;23.354;2023-02-21T07:34:11;95465.47;;;9.14;57.10
7834;BME280;3962;42.696;23.354;2023-02-21T07:36:39;95458.94;;;9.27;56.86
7834;BME280;3962;42.696;23.354;2023-02-21T07:39:06;95448.03;;;9.30;56.64
7834;BME280;3962;42.696;23.354;2023-02-21T07:41:33;95457.19;;;9.47;56.15
7834;BME280;3962;42.696;23.354;2023-02-21T07:44:00;95454.94;;;9.52;56.26
7834;BME280;3962;42.696;23.354;2023-02-21T07:46:27;95448.28;;;9.57;55.97
7834;BME280;3962;42.696;23.354;2023-02-21T07:48:56;95439.19;;;9.69;55.67
7834;BME280;3962;42.696;23.354;2023-02-21T07:51:26;95437.53;;;9.78;55.50
7834;BME280;3962;42.696;23.354;2023-02-21T07:53:53;95437.13;;;9.92;55.16
7834;BME280;3962;42.696;23.354;2023-02-21T07:56:20;95443.13;;;9.94;54.80
7834;BME280;3962;42.696;23.354;2023-02-21T07:58:47;95444.38;;;9.99;54.58
7834;BME280;3962;42.696;23.354;2023-02-21T08:01:14;95431.94;;;10.00;54.85
7834;BME280;3962;42.696;23.354;2023-02-21T08:03:41;95436.53;;;9.98;54.46
7834;BME280;3962;42.696;23.354;2023-02-21T08:06:10;95433.47;;;9.93;54.71
7834;BME280;3962;42.696;23.354;2023-02-21T08:08:37;95426.63;;;10.00;55.18
7834;BME280;3962;42.696;23.354;2023-02-21T08:11:04;95428.91;;;10.04;54.78
7834;BME280;3962;42.696;23.354;2023-02-21T08:13:31;95419.25;;;10.03;55.15
7834;BME280;3962;42.696;23.354;2023-02-21T08:15:57;95424.41;;;10.14;54.94
7834;BME280;3962;42.696;23.354;2023-02-21T08:18:25;95423.41;;;10.15;54.76
7834;BME280;3962;42.696;23.354;2023-02-21T08:20:53;95418.22;;;10.33;54.53
7834;BME280;3962;42.696;23.354;2023-02-21T08:23:22;95415.13;;;10.47;54.13
7834;BME280;3962;42.696;23.354;2023-02-21T08:25:50;95417.47;;;10.59;53.72
7834;BME280;3962;42.696;23.354;2023-02-21T08:28:24;95419.50;;;10.75;53.43
7834;BME280;3962;42.696;23.354;2023-02-21T08:30:51;95422.75;;;10.69;53.22
7834;BME280;3962;42.696;23.354;2023-02-21T08:33:18;95414.72;;;10.88;52.96
7834;BME280;3962;42.696;23.354;2023-02-21T08:35:45;95411.72;;;11.00;53.00
7834;BME280;3962;42.696;23.354;2023-02-21T08:38:12;95410.38;;;10.87;53.04
7834;BME280;3962;42.696;23.354;2023-02-21T08:40:42;95409.59;;;11.03;52.83
7834;BME280;3962;42.696;23.354;2023-02-21T08:43:10;95409.16;;;11.08;52.19
7834;BME280;3962;42.696;23.354;2023-02-21T08:45:37;95407.72;;;11.40;51.71
7834;BME280;3962;42.696;23.354;2023-02-21T08:48:04;95402.56;;;12.01;50.60
7834;BME280;3962;42.696;23.354;2023-02-21T08:50:31;95399.28;;;12.50;49.31
7834;BME280;3962;42.696;23.354;2023-02-21T08:52:58;95405.75;;;12.65;48.85
7834;BME280;3962;42.696;23.354;2023-02-21T08:55:25;95406.66;;;12.81;48.58
7834;BME280;3962;42.696;23.354;2023-02-21T08:57:53;95402.84;;;12.84;47.56
7834;BME280;3962;42.696;23.354;2023-02-21T09:00:22;95405.78;;;13.32;48.04
7834;BME280;3962;42.696;23.354;2023-02-21T09:02:53;95402.34;;;13.39;47.17
7834;BME280;3962;42.696;23.354;2023-02-21T09:05:23;95404.34;;;13.04;47.50
7834;BME280;3962;42.696;23.354;2023-02-21T09:07:52;95407.31;;;13.34;46.83
7834;BME280;3962;42.696;23.354;2023-02-21T09:10:23;95393.81;;;13.36;46.76
7834;BME280;3962;42.696;23.354;2023-02-21T09:12:52;95386.31;;;13.39;46.66
7834;BME280;3962;42.696;23.354;2023-02-21T09:15:19;95383.69;;;13.55;46.32
7834;BME280;3962;42.696;23.354;2023-02-21T09:17:47;95380.19;;;13.71;46.09
7834;BME280;3962;42.696;23.354;2023-02-21T09:20:19;95383.28;;;14.16;45.69
7834;BME280;3962;42.696;23.354;2023-02-21T09:22:46;95383.31;;;15.18;43.90
7834;BME280;3962;42.696;23.354;2023-02-21T09:25:14;95373.78;;;15.31;43.42
7834;BME280;3962;42.696;23.354;2023-02-21T09:27:41;95374.59;;;15.24;42.56
7834;BME280;3962;42.696;23.354;2023-02-21T09:30:12;95372.75;;;15.40;43.14
7834;BME280;3962;42.696;23.354;2023-02-21T09:32:40;95376.97;;;15.65;41.97
7834;BME280;3962;42.696;23.354;2023-02-21T09:35:08;95371.63;;;15.88;41.56
7834;BME280;3962;42.696;23.354;2023-02-21T09:37:36;95378.41;;;16.29;41.44
7834;BME280;3962;42.696;23.354;2023-02-21T09:40:04;95374.28;;;16.63;40.38
7834;BME280;3962;42.696;23.354;2023-02-21T09:42:33;95359.63;;;16.51;39.51
7834;BME280;3962;42.696;23.354;2023-02-21T09:45:01;95357.47;;;16.47;39.85
7834;BME280;3962;42.696;23.354;2023-02-21T09:47:33;95355.81;;;16.46;39.83
7834;BME280;3962;42.696;23.354;2023-02-21T09:50:04;95345.19;;;16.30;40.28
7834;BME280;3962;42.696;23.354;2023-02-21T09:52:33;95356.88;;;16.59;40.68
7834;BME280;3962;42.696;23.354;2023-02-21T09:55:04;95355.53;;;16.92;40.10
7834;BME280;3962;42.696;23.354;2023-02-21T09:57:34;95345.16;;;17.18;39.48
7834;BME280;3962;42.696;23.354;2023-02-21T10:00:14;95354.59;;;17.29;39.10
7834;BME280;3962;42.696;23.354;2023-02-21T10:02:52;95351.81;;;16.93;39.35
7834;BME280;3962;42.696;23.354;2023-02-21T10:05:29;95348.31;;;16.93;39.49
7834;BME280;3962;42.696;23.354;2023-02-21T10:08:06;95337.19;;;16.96;39.39
7834;BME280;3962;42.696;23.354;2023-02-21T10:10:39;95325.78;;;17.08;39.16
7834;BME280;3962;42.696;23.354;2023-02-21T10:13:16;95325.16;;;16.92;38.82
7834;BME280;3962;42.696;23.354;2023-02-21T10:15:47;95330.16;;;16.43;39.87
7834;BME280;3962;42.696;23.354;2023-02-21T10:18:24;95320.53;;;16.63;39.30
7834;BME280;3962;42.696;23.354;2023-02-21T10:20:55;95306.38;;;16.55;39.51
7834;BME280;3962;42.696;23.354;2023-02-21T10:23:28;95301.69;;;17.00;38.67
7834;BME280;3962;42.696;23.354;2023-02-21T10:25:59;95301.22;;;17.40;38.07
7834;BME280;3962;42.696;23.354;2023-02-21T10:28:27;95300.25;;;17.62;37.52
7834;BME280;3962;42.696;23.354;2023-02-21T10:30:56;95299.09;;;17.71;37.17
7834;BME280;3962;42.696;23.354;2023-02-21T10:33:25;95294.53;;;17.51;36.93
7834;BME280;3962;42.696;23.354;2023-02-21T10:35:52;95282.28;;;17.48;37.10
7834;BME280;3962;42.696;23.354;2023-02-21T10:38:24;95274.13;;;17.77;36.58
7834;BME280;3962;42.696;23.354;2023-02-21T10:40:55;95272.66;;;17.96;36.08
7834;BME280;3962;42.696;23.354;2023-02-21T10:43:29;95263.13;;;17.93;36.08
7834;BME280;3962;42.696;23.354;2023-02-21T10:46:01;95265.72;;;18.08;35.33
7834;BME280;3962;42.696;23.354;2023-02-21T10:48:34;95250.41;;;17.87;32.77
7834;BME280;3962;42.696;23.354;2023-02-21T10:51:07;95247.91;;;18.07;32.70
7834;BME280;3962;42.696;23.354;2023-02-21T10:53:37;95249.84;;;18.13;32.10
7834;BME280;3962;42.696;23.354;2023-02-21T10:58:52;95232.25;;;18.38;31.91
7834;BME280;3962;42.696;23.354;2023-02-21T11:01:22;95233.69;;;18.13;31.99
7834;BME280;3962;42.696;23.354;2023-02-21T11:03:59;95227.13;;;18.43;32.21
7834;BME280;3962;42.696;23.354;2023-02-21T11:06:32;95218.94;;;18.57;31.35
7834;BME280;3962;42.696;23.354;2023-02-21T11:09:01;95218.66;;;18.25;32.06
7834;BME280;3962;42.696;23.354;2023-02-21T11:11:36;95210.56;;;18.25;32.56
7834;BME280;3962;42.696;23.354;2023-02-21T11:14:20;95212.94;;;18.13;32.40
7834;BME280;3962;42.696;23.354;2023-02-21T11:17:05;95208.81;;;18.11;32.57
7834;BME280;3962;42.696;23.354;2023-02-21T11:19:54;95202.13;;;18.07;32.61
7834;BME280;3962;42.696;23.354;2023-02-21T11:22:23;95188.81;;;18.26;32.36
7834;BME280;3962;42.696;23.354;2023-02-21T11:25:03;95199.63;;;18.54;32.04
7834;BME280;3962;42.696;23.354;2023-02-21T11:27:32;95183.16;;;18.15;33.18
7834;BME280;3962;42.696;23.354;2023-02-21T11:30:00;95195.00;;;18.20;32.89
7834;BME280;3962;42.696;23.354;2023-02-21T11:32:31;95184.63;;;18.17;32.78
7834;BME280;3962;42.696;23.354;2023-02-21T11:35:06;95176.41;;;18.25;32.58
7834;BME280;3962;42.696;23.354;2023-02-21T11:37:47;95173.69;;;18.46;33.78
7834;BME280;3962;42.696;23.354;2023-02-21T11:40:28;95172.25;;;18.50;35.56
7834;BME280;3962;42.696;23.354;2023-02-21T11:43:17;95166.63;;;18.45;33.01
7834;BME280;3962;42.696;23.354;2023-02-21T11:45:53;95163.69;;;18.40;32.50
7834;BME280;3962;42.696;23.354;2023-02-21T11:48:24;95155.94;;;18.31;31.78
7834;BME280;3962;42.696;23.354;2023-02-21T11:51:02;95156.47;;;18.20;32.53
7834;BME280;3962;42.696;23.354;2023-02-21T11:53:38;95153.00;;;18.53;33.16
7834;BME280;3962;42.696;23.354;2023-02-21T11:56:14;95153.16;;;18.45;32.94
7834;BME280;3962;42.696;23.354;2023-02-21T11:58:49;95142.41;;;18.52;33.77
7834;BME280;3962;42.696;23.354;2023-02-21T12:01:24;95125.06;;;18.61;33.94
7834;BME280;3962;42.696;23.354;2023-02-21T12:07:03;95128.41;;;19.16;33.49
7834;BME280;3962;42.696;23.354;2023-02-21T12:09:41;95090.97;;;18.87;32.83
7834;BME280;3962;42.696;23.354;2023-02-21T12:12:24;95117.59;;;18.63;32.51
7834;BME280;3962;42.696;23.354;2023-02-21T12:15:04;95114.09;;;18.62;35.54
7834;BME280;3962;42.696;23.354;2023-02-21T12:17:58;95095.50;;;18.86;34.45
7834;BME280;3962;42.696;23.354;2023-02-21T12:20:54;95104.69;;;18.98;33.55
7834;BME280;3962;42.696;23.354;2023-02-21T12:23:36;95101.03;;;19.19;35.77
7834;BME280;3962;42.696;23.354;2023-02-21T12:26:18;95077.53;;;19.13;35.06
7834;BME280;3962;42.696;23.354;2023-02-21T12:29:00;95092.03;;;18.99;33.17
7834;BME280;3962;42.696;23.354;2023-02-21T12:31:46;95087.09;;;19.15;34.48
7834;BME280;3962;42.696;23.354;2023-02-21T12:34:25;95089.38;;;19.12;34.90
7834;BME280;3962;42.696;23.354;2023-02-21T12:37:03;95085.84;;;19.11;32.49
7834;BME280;3962;42.696;23.354;2023-02-21T12:39:55;95087.41;;;19.40;33.10
7834;BME280;3962;42.696;23.354;2023-02-21T12:42:36;95074.75;;;19.60;33.15
7834;BME280;3962;42.696;23.354;2023-02-21T12:45:20;95070.38;;;19.98;31.98
7834;BME280;3962;42.696;23.354;2023-02-21T12:47:54;95079.72;;;19.95;33.64
7834;BME280;3962;42.696;23.354;2023-02-21T12:50:26;95064.97;;;19.85;32.26
7834;BME280;3962;42.696;23.354;2023-02-21T12:52:59;95074.75;;;19.99;32.99
7834;BME280;3962;42.696;23.354;2023-02-21T12:55:33;95069.34;;;20.05;34.53
7834;BME280;3962;42.696;23.354;2023-02-21T12:58:10;95072.47;;;19.76;32.61
7834;BME280;3962;42.696;23.354;2023-02-21T13:00:42;95064.56;;;19.81;31.27
7834;BME280;3962;42.696;23.354;2023-02-21T13:03:26;95060.00;;;20.01;31.35
7834;BME280;3962;42.696;23.354;2023-02-21T13:06:03;95049.63;;;20.18;30.64
7834;BME280;3962;42.696;23.354;2023-02-21T13:08:35;95052.50;;;20.23;31.40
7834;BME280;3962;42.696;23.354;2023-02-21T13:11:15;95052.03;;;20.39;31.31
7834;BME280;3962;42.696;23.354;2023-02-21T13:13:44;95047.97;;;20.67;31.44
7834;BME280;3962;42.696;23.354;2023-02-21T13:16:13;95051.47;;;20.87;33.65
7834;BME280;3962;42.696;23.354;2023-02-21T13:18:45;95043.28;;;20.50;34.85
7834;BME280;3962;42.696;23.354;2023-02-21T13:21:21;95051.34;;;20.63;31.38
7834;BME280;3962;42.696;23.354;2023-02-21T13:23:57;95049.84;;;20.73;30.50
7834;BME280;3962;42.696;23.354;2023-02-21T13:26:56;95044.41;;;20.86;30.87
7834;BME280;3962;42.696;23.354;2023-02-21T13:29:30;95038.81;;;20.68;30.31
7834;BME280;3962;42.696;23.354;2023-02-21T13:31:59;95036.53;;;20.72;30.42
7834;BME280;3962;42.696;23.354;2023-02-21T13:34:29;95033.94;;;20.46;30.88
7834;BME280;3962;42.696;23.354;2023-02-21T13:37:00;95039.22;;;20.72;30.48
7834;BME280;3962;42.696;23.354;2023-02-21T13:39:29;95028.78;;;20.88;30.54
7834;BME280;3962;42.696;23.354;2023-02-21T13:42:07;95028.72;;;21.01;30.94
7834;BME280;3962;42.696;23.354;2023-02-21T13:44:37;95022.22;;;21.40;30.88
7834;BME280;3962;42.696;23.354;2023-02-21T13:47:14;95019.78;;;21.32;29.40
7834;BME280;3962;42.696;23.354;2023-02-21T13:49:48;95019.56;;;21.02;29.35
7834;BME280;3962;42.696;23.354;2023-02-21T13:52:35;95022.31;;;20.39;30.40
7834;BME280;3962;42.696;23.354;2023-02-21T13:55:26;95005.16;;;20.64;30.68
7834;BME280;3962;42.696;23.354;2023-02-21T13:58:33;95019.13;;;21.05;31.23
7834;BME280;3962;42.696;23.354;2023-02-21T14:07:55;95016.53;;;20.79;30.56
7834;BME280;3962;42.696;23.354;2023-02-21T14:10:38;95013.31;;;20.58;30.54
7834;BME280;3962;42.696;23.354;2023-02-21T14:13:18;95011.53;;;20.76;31.16
7834;BME280;3962;42.696;23.354;2023-02-21T14:15:55;95012.56;;;20.88;31.45
7834;BME280;3962;42.696;23.354;2023-02-21T14:18:27;95003.38;;;20.45;28.41
7834;BME280;3962;42.696;23.354;2023-02-21T14:20:56;95015.28;;;20.31;29.89
7834;BME280;3962;42.696;23.354;2023-02-21T14:23:31;95006.09;;;20.39;28.97
7834;BME280;3962;42.696;23.354;2023-02-21T14:26:02;95005.69;;;20.35;29.12
7834;BME280;3962;42.696;23.354;2023-02-21T14:28:58;95000.59;;;19.95;30.02
7834;BME280;3962;42.696;23.354;2023-02-21T14:31:48;95003.72;;;19.85;29.29